createdAt,value
2023-03-30T00:00:24.437Z,25.17
2023-03-30T00:02:59.821Z,24.13
2023-03-30T00:05:26.528Z,22.05
2023-03-30T00:07:59.686Z,22.50
2023-03-30T00:10:27.293Z,22.67
2023-03-30T00:13:00.714Z,23.25
2023-03-30T00:15:33.716Z,22.90
2023-03-30T00:18:08.768Z,21.50
2023-03-30T00:20:37.659Z,21.73
2023-03-30T00:23:04.549Z,20.65
2023-03-30T00:25:37.731Z,19.85
2023-03-30T00:28:10.700Z,19.83
2023-03-30T00:30:43.738Z,20.83
2023-03-30T00:33:17.726Z,20.08
2023-03-30T00:35:44.984Z,22.77
2023-03-30T00:38:17.722Z,21.08
2023-03-30T00:41:03.944Z,22.58
2023-03-30T00:43:37.183Z,23.67
2023-03-30T00:46:10.755Z,24.40
2023-03-30T00:48:40.723Z,22.08
2023-03-30T00:51:17.739Z,24.77
2023-03-30T00:53:49.295Z,24.75
2023-03-30T00:56:33.721Z,23.05
2023-03-30T00:59:07.734Z,26.40
2023-03-30T01:01:39.114Z,24.80
2023-03-30T01:04:14.722Z,28.00
2023-03-30T01:06:43.518Z,24.67
2023-03-30T01:09:17.757Z,24.33
2023-03-30T01:11:44.755Z,27.35
2023-03-30T01:14:18.771Z,29.65
2023-03-30T01:17:03.981Z,29.90
2023-03-30T01:20:15.780Z,29.05
2023-03-30T01:23:05.005Z,33.03
2023-03-30T01:26:08.727Z,31.05
2023-03-30T01:28:41.890Z,36.03
2023-03-30T01:31:20.748Z,37.15
2023-03-30T01:34:02.279Z,33.22
2023-03-30T01:37:04.766Z,36.55
2023-03-30T01:40:03.730Z,35.42
2023-03-30T01:43:11.767Z,33.08
2023-03-30T01:46:03.744Z,37.28
2023-03-30T01:49:26.734Z,42.78
2023-03-30T01:52:18.767Z,34.72
2023-03-30T01:54:51.613Z,37.75
2023-03-30T01:57:36.775Z,39.40
2023-03-30T02:00:14.392Z,42.55
2023-03-30T02:03:00.865Z,45.00
2023-03-30T02:05:28.633Z,40.92
2023-03-30T02:08:08.782Z,46.22
2023-03-30T02:10:36.378Z,42.35
2023-03-30T02:13:10.794Z,39.17
2023-03-30T02:15:49.835Z,43.55
2023-03-30T02:18:16.639Z,42.72
2023-03-30T02:20:49.772Z,41.58
2023-03-30T02:23:24.759Z,35.65
2023-03-30T02:25:51.472Z,39.15
2023-03-30T02:28:24.770Z,38.53
2023-03-30T02:30:51.620Z,31.42
2023-03-30T02:33:53.808Z,33.30
2023-03-30T02:36:55.837Z,28.20
2023-03-30T02:40:03.793Z,30.45
2023-03-30T02:43:02.755Z,30.23
2023-03-30T02:45:35.825Z,26.77
2023-03-30T02:48:32.174Z,27.33
2023-03-30T02:51:15.801Z,26.48
2023-03-30T02:53:49.339Z,23.17
2023-03-30T02:56:40.806Z,22.25
2023-03-30T02:59:14.636Z,22.42
2023-03-30T03:01:57.851Z,20.00
2023-03-30T03:04:34.790Z,20.45
2023-03-30T03:07:02.661Z,22.08
2023-03-30T03:09:35.808Z,18.55
2023-03-30T03:12:02.570Z,17.70
2023-03-30T03:14:35.796Z,19.20
2023-03-30T03:17:02.434Z,17.63
2023-03-30T03:19:35.809Z,16.67
2023-03-30T03:22:02.651Z,17.60
2023-03-30T03:24:45.829Z,17.17
2023-03-30T03:27:12.466Z,18.42
2023-03-30T03:29:46.809Z,18.40
2023-03-30T03:32:19.857Z,17.92
2023-03-30T03:34:46.513Z,15.77
2023-03-30T03:37:19.879Z,16.02
2023-03-30T03:39:46.563Z,17.42
2023-03-30T03:42:19.846Z,15.23
2023-03-30T03:44:53.225Z,16.23
2023-03-30T03:47:26.887Z,15.85
2023-03-30T03:50:00.872Z,16.17
2023-03-30T03:52:33.838Z,16.52
2023-03-30T03:55:07.843Z,16.65
2023-03-30T03:57:40.843Z,17.05
2023-03-30T04:00:18.483Z,16.23
2023-03-30T04:02:51.836Z,15.35
2023-03-30T04:05:18.641Z,16.35
2023-03-30T04:07:52.816Z,14.70
2023-03-30T04:10:26.847Z,15.57
2023-03-30T04:12:57.004Z,16.25
2023-03-30T04:15:24.763Z,14.52
2023-03-30T04:18:03.894Z,18.17
2023-03-30T04:20:36.824Z,14.98
2023-03-30T04:23:03.541Z,17.02
2023-03-30T04:25:36.849Z,15.00
2023-03-30T04:28:11.852Z,17.33
2023-03-30T04:30:38.822Z,16.85
2023-03-30T04:33:11.914Z,16.48
2023-03-30T04:35:38.579Z,14.75
2023-03-30T04:38:12.892Z,15.60
2023-03-30T04:40:39.546Z,15.55
2023-03-30T04:43:20.853Z,15.13
2023-03-30T04:46:01.940Z,14.23
2023-03-30T04:48:28.636Z,13.80
2023-03-30T04:51:01.985Z,14.77
2023-03-30T04:53:28.853Z,14.32
2023-03-30T04:55:55.694Z,13.77
2023-03-30T04:58:28.876Z,13.85
2023-03-30T05:00:56.030Z,13.93
2023-03-30T05:03:29.037Z,13.45
2023-03-30T05:05:56.053Z,12.55
2023-03-30T05:08:29.902Z,13.02
2023-03-30T05:11:07.913Z,14.35
2023-03-30T05:13:34.574Z,14.88
2023-03-30T05:16:07.901Z,16.98
2023-03-30T05:18:34.578Z,17.50
2023-03-30T05:21:01.414Z,17.88
2023-03-30T05:23:34.882Z,15.90
2023-03-30T05:26:01.613Z,16.25
2023-03-30T05:28:34.928Z,14.27
2023-03-30T05:31:08.090Z,12.98
2023-03-30T05:33:35.002Z,12.98
2023-03-30T05:36:07.942Z,15.30
2023-03-30T05:38:35.052Z,15.23
2023-03-30T05:41:08.904Z,13.80
2023-03-30T05:43:49.147Z,13.40
2023-03-30T05:46:21.958Z,15.85
2023-03-30T05:48:55.371Z,13.98
2023-03-30T05:51:28.920Z,13.70
2023-03-30T05:53:55.906Z,15.40
2023-03-30T05:56:29.910Z,14.25
2023-03-30T05:58:56.683Z,14.82
2023-03-30T06:01:23.343Z,13.45
2023-03-30T06:03:57.100Z,12.88
2023-03-30T06:06:30.907Z,13.02
2023-03-30T06:09:03.933Z,13.02
2023-03-30T06:11:31.900Z,13.40
2023-03-30T06:14:06.146Z,12.70
2023-03-30T06:16:34.084Z,13.02
2023-03-30T06:19:06.901Z,12.27
2023-03-30T06:21:52.228Z,12.50
2023-03-30T06:24:26.961Z,11.40
2023-03-30T06:26:53.639Z,11.25
2023-03-30T06:29:20.606Z,11.13
2023-03-30T06:31:54.934Z,12.60
2023-03-30T06:34:21.794Z,15.02
2023-03-30T06:36:54.942Z,12.88
2023-03-30T06:39:29.108Z,11.82
2023-03-30T06:41:55.723Z,11.65
2023-03-30T06:44:35.941Z,11.60
2023-03-30T06:47:09.929Z,12.60
2023-03-30T06:49:36.700Z,11.40
2023-03-30T06:52:09.934Z,11.95
2023-03-30T06:54:42.955Z,12.68
2023-03-30T06:57:09.606Z,11.68
2023-03-30T06:59:42.934Z,13.15
2023-03-30T07:02:15.442Z,11.10
2023-03-30T07:04:49.050Z,12.40
2023-03-30T07:07:21.934Z,21.27
2023-03-30T07:09:54.954Z,15.60
2023-03-30T07:12:27.986Z,22.30
2023-03-30T07:14:54.624Z,19.30
2023-03-30T07:17:28.973Z,17.88
2023-03-30T07:20:02.015Z,17.63
2023-03-30T07:22:34.989Z,14.95
2023-03-30T07:25:01.916Z,14.48
2023-03-30T07:27:42.956Z,13.82
2023-03-30T07:30:21.188Z,11.10
2023-03-30T07:32:58.639Z,10.93
2023-03-30T07:35:25.531Z,8.60
2023-03-30T07:38:03.211Z,7.18
2023-03-30T07:40:30.360Z,5.38
2023-03-30T07:43:04.022Z,6.05
2023-03-30T07:45:36.969Z,3.92
2023-03-30T07:48:03.871Z,5.20
2023-03-30T07:50:36.962Z,5.75
2023-03-30T07:53:09.966Z,4.57
2023-03-30T07:55:37.668Z,3.90
2023-03-30T07:58:10.977Z,4.97
2023-03-30T08:00:37.714Z,5.00
2023-03-30T08:03:11.101Z,4.63
2023-03-30T08:05:38.865Z,4.65
2023-03-30T08:08:12.006Z,4.13
2023-03-30T08:10:38.645Z,5.40
2023-03-30T08:13:05.347Z,4.82
2023-03-30T08:15:38.995Z,4.88
2023-03-30T08:18:08.351Z,5.50
2023-03-30T08:20:43.992Z,4.03
2023-03-30T08:23:11.580Z,4.30
2023-03-30T08:25:46.668Z,3.78
2023-03-30T08:28:13.890Z,4.25
2023-03-30T08:30:40.901Z,4.72
2023-03-30T08:33:16.153Z,4.80
2023-03-30T08:38:24.002Z,3.78
2023-03-30T08:43:42.034Z,3.78
2023-03-30T08:46:21.098Z,4.20
2023-03-30T08:48:55.008Z,4.22
2023-03-30T08:51:27.951Z,5.40
2023-03-30T08:54:10.011Z,6.53
2023-03-30T08:56:42.089Z,4.30
2023-03-30T08:59:24.033Z,4.72
2023-03-30T09:02:26.045Z,4.18
2023-03-30T09:05:22.095Z,5.75
2023-03-30T09:08:17.003Z,6.97
2023-03-30T09:10:54.047Z,4.65
2023-03-30T09:13:22.995Z,3.97
2023-03-30T09:16:21.141Z,4.47
2023-03-30T09:18:55.450Z,4.15
2023-03-30T09:21:30.056Z,3.97
2023-03-30T09:24:05.035Z,5.03
2023-03-30T09:26:55.229Z,4.95
2023-03-30T09:29:39.040Z,4.88
2023-03-30T09:32:50.107Z,4.75
2023-03-30T09:35:32.121Z,4.00
2023-03-30T09:38:05.068Z,4.47
2023-03-30T09:41:05.606Z,4.63
2023-03-30T09:43:53.159Z,3.25
2023-03-30T09:46:19.894Z,4.20
2023-03-30T09:48:55.083Z,4.57
2023-03-30T09:51:34.067Z,4.22
2023-03-30T09:54:10.068Z,3.17
2023-03-30T09:56:53.125Z,3.45
2023-03-30T09:59:37.064Z,3.80
2023-03-30T10:02:13.510Z,3.42
2023-03-30T10:05:10.071Z,3.17
2023-03-30T10:07:47.048Z,4.22
2023-03-30T10:10:43.078Z,5.03
2023-03-30T10:13:20.102Z,3.83
2023-03-30T10:15:56.107Z,2.92
2023-03-30T10:18:29.466Z,3.85
2023-03-30T10:21:34.090Z,4.18
2023-03-30T10:24:25.708Z,4.18
2023-03-30T10:27:04.080Z,3.45
2023-03-30T10:29:39.107Z,2.72
2023-03-30T10:32:14.076Z,4.10
2023-03-30T10:34:50.100Z,4.63
2023-03-30T10:37:22.312Z,3.80
2023-03-30T10:39:56.146Z,3.70
2023-03-30T10:42:32.205Z,3.65
2023-03-30T10:45:14.105Z,3.90
2023-03-30T10:48:01.771Z,4.68
2023-03-30T10:50:48.096Z,5.22
2023-03-30T10:53:43.115Z,3.88
2023-03-30T10:56:15.765Z,4.55
2023-03-30T10:58:59.081Z,4.25
2023-03-30T11:01:47.042Z,3.72
2023-03-30T11:04:38.090Z,4.82
2023-03-30T11:07:14.135Z,4.30
2023-03-30T11:09:58.145Z,4.03
2023-03-30T11:12:27.084Z,4.10
2023-03-30T11:15:06.147Z,4.43
2023-03-30T11:17:51.304Z,2.75
2023-03-30T11:20:31.005Z,5.35
2023-03-30T11:23:25.104Z,3.67
2023-03-30T11:25:53.364Z,3.97
2023-03-30T11:28:44.116Z,3.50
2023-03-30T11:34:51.353Z,3.60
2023-03-30T11:37:40.184Z,3.53
2023-03-30T11:40:12.735Z,4.47
2023-03-30T11:42:53.275Z,3.80
2023-03-30T11:45:34.587Z,4.28
2023-03-30T11:48:29.290Z,4.05
2023-03-30T11:51:08.183Z,4.45
2023-03-30T11:54:07.262Z,4.07
2023-03-30T11:56:34.096Z,3.53
2023-03-30T11:59:12.257Z,4.05
2023-03-30T12:01:52.282Z,4.20
2023-03-30T12:04:56.308Z,5.50
2023-03-30T12:07:43.143Z,11.65
2023-03-30T12:10:33.115Z,4.85
2023-03-30T12:13:01.317Z,3.85
2023-03-30T12:15:53.185Z,3.65
2023-03-30T12:18:37.184Z,5.10
2023-03-30T12:21:28.194Z,4.13
2023-03-30T12:24:15.144Z,4.53
2023-03-30T12:27:02.081Z,4.32
2023-03-30T12:32:33.232Z,4.82
2023-03-30T12:34:59.884Z,3.63
2023-03-30T12:37:42.228Z,3.65
2023-03-30T12:40:20.587Z,3.60
2023-03-30T12:43:01.209Z,3.88
2023-03-30T12:45:37.548Z,3.50
2023-03-30T12:48:29.230Z,3.72
2023-03-30T12:51:19.217Z,3.75
2023-03-30T12:53:55.208Z,3.42
2023-03-30T12:57:10.208Z,3.83
2023-03-30T13:00:08.199Z,3.83
2023-03-30T13:02:34.818Z,3.22
2023-03-30T13:05:08.212Z,3.70
2023-03-30T13:07:36.506Z,7.85
2023-03-30T13:10:44.219Z,4.15
2023-03-30T13:13:24.784Z,3.35
2023-03-30T13:15:58.030Z,3.20
2023-03-30T13:18:30.566Z,3.70
2023-03-30T13:20:57.288Z,4.25
2023-03-30T13:23:27.307Z,3.95
2023-03-30T13:26:07.880Z,3.15
2023-03-30T13:28:48.833Z,3.38
2023-03-30T13:31:24.955Z,3.80
2023-03-30T13:34:04.494Z,4.80
2023-03-30T13:36:34.253Z,3.85
2023-03-30T13:39:09.534Z,4.35
2023-03-30T13:42:00.659Z,3.97
2023-03-30T13:45:04.221Z,6.88
2023-03-30T13:48:02.906Z,3.85
2023-03-30T13:50:31.426Z,4.10
2023-03-30T13:52:59.728Z,3.97
2023-03-30T13:55:35.748Z,3.33
2023-03-30T13:58:11.054Z,3.30
2023-03-30T14:03:46.682Z,3.72
2023-03-30T14:06:13.611Z,3.90
2023-03-30T14:08:45.046Z,5.80
2023-03-30T14:11:21.914Z,4.45
2023-03-30T14:13:52.481Z,4.70
2023-03-30T14:16:32.380Z,5.25
2023-03-30T14:19:08.409Z,4.72
2023-03-30T14:21:36.612Z,3.25
2023-03-30T14:24:04.583Z,4.68
2023-03-30T14:26:31.742Z,4.60
2023-03-30T14:29:02.669Z,4.63
2023-03-30T14:31:38.496Z,4.75
2023-03-30T14:34:28.398Z,4.35
2023-03-30T14:39:23.987Z,4.10
2023-03-30T14:41:51.302Z,6.38
2023-03-30T14:44:22.919Z,4.85
2023-03-30T14:46:51.976Z,4.25
2023-03-30T14:49:20.508Z,3.95
2023-03-30T14:51:50.049Z,4.82
2023-03-30T14:54:19.053Z,5.25
2023-03-30T14:56:52.698Z,4.80
2023-03-30T14:59:19.978Z,4.57
2023-03-30T15:01:46.933Z,4.30
2023-03-30T15:04:17.909Z,4.90
2023-03-30T15:06:47.316Z,4.50
2023-03-30T15:09:19.417Z,5.15
2023-03-30T15:11:50.065Z,3.65
2023-03-30T15:14:20.770Z,4.55
2023-03-30T15:16:50.539Z,3.78
2023-03-30T15:19:28.817Z,3.95
2023-03-30T15:21:58.973Z,4.43
2023-03-30T15:24:30.386Z,3.17
2023-03-30T15:27:01.192Z,4.35
2023-03-30T15:29:28.143Z,4.38
2023-03-30T15:32:01.067Z,3.75
2023-03-30T15:34:28.019Z,4.80
2023-03-30T15:36:55.881Z,8.93
2023-03-30T15:39:34.110Z,6.45
2023-03-30T15:42:04.626Z,4.55
2023-03-30T15:44:37.127Z,7.00
2023-03-30T15:47:06.370Z,4.30
2023-03-30T15:50:02.455Z,7.43
2023-03-30T15:52:35.390Z,5.40
2023-03-30T15:55:07.771Z,6.85
2023-03-30T15:57:34.928Z,5.35
2023-03-30T16:00:13.939Z,5.60
2023-03-30T16:02:48.032Z,5.25
2023-03-30T16:05:23.285Z,5.35
2023-03-30T16:07:50.088Z,5.45
2023-03-30T16:10:20.829Z,5.80
2023-03-30T16:12:48.707Z,4.47
2023-03-30T16:15:19.966Z,8.15
2023-03-30T16:17:47.073Z,9.60
2023-03-30T16:20:22.437Z,8.45
2023-03-30T16:22:49.904Z,6.22
2023-03-30T16:25:18.195Z,10.07
2023-03-30T16:27:46.678Z,12.23
2023-03-30T16:30:21.675Z,13.90
2023-03-30T16:32:48.483Z,9.73
2023-03-30T16:35:15.352Z,7.60
2023-03-30T16:37:42.156Z,11.73
2023-03-30T16:40:26.610Z,8.65
2023-03-30T16:42:55.526Z,12.00
2023-03-30T16:45:22.190Z,10.18
2023-03-30T16:47:49.215Z,10.13
2023-03-30T16:50:23.602Z,6.88
2023-03-30T16:52:51.492Z,9.40
2023-03-30T16:55:18.773Z,8.90
2023-03-30T16:57:45.655Z,9.27
2023-03-30T17:00:32.891Z,8.98
2023-03-30T17:02:59.655Z,7.78
2023-03-30T17:05:26.376Z,13.88
2023-03-30T17:07:54.546Z,12.77
2023-03-30T17:10:28.021Z,12.15
2023-03-30T17:12:56.020Z,14.00
2023-03-30T17:15:24.306Z,8.40
2023-03-30T17:17:52.314Z,10.50
2023-03-30T17:20:26.623Z,6.78
2023-03-30T17:22:53.810Z,10.48
2023-03-30T17:25:23.448Z,7.65
2023-03-30T17:27:51.418Z,11.32
2023-03-30T17:30:22.989Z,13.32
2023-03-30T17:32:50.254Z,15.63
2023-03-30T17:35:18.048Z,11.48
2023-03-30T17:37:44.939Z,11.48
2023-03-30T17:40:16.420Z,11.52
2023-03-30T17:42:44.082Z,13.45
2023-03-30T17:45:12.560Z,15.48
2023-03-30T17:47:39.421Z,17.73
2023-03-30T17:50:22.485Z,21.95
2023-03-30T17:52:49.972Z,23.38
2023-03-30T17:55:17.454Z,21.33
2023-03-30T17:57:44.118Z,22.70
2023-03-30T18:00:24.234Z,17.02
2023-03-30T18:02:51.803Z,15.43
2023-03-30T18:05:19.384Z,17.50
2023-03-30T18:07:46.642Z,20.90
2023-03-30T18:10:39.839Z,23.20
2023-03-30T18:13:06.736Z,15.00
2023-03-30T18:15:34.074Z,20.83
2023-03-30T18:18:01.136Z,14.95
2023-03-30T18:20:33.850Z,11.70
2023-03-30T18:23:00.793Z,14.45
2023-03-30T18:25:32.598Z,13.23
2023-03-30T18:28:00.997Z,11.60
2023-03-30T18:30:40.557Z,12.68
2023-03-30T18:33:07.350Z,12.93
2023-03-30T18:35:35.972Z,13.25
2023-03-30T18:38:04.059Z,12.38
2023-03-30T18:40:33.032Z,14.95
2023-03-30T18:43:00.544Z,13.35
2023-03-30T18:45:33.892Z,13.27
2023-03-30T18:48:01.872Z,14.10
2023-03-30T18:50:30.342Z,12.15
2023-03-30T18:52:57.042Z,11.25
2023-03-30T18:55:24.348Z,10.23
2023-03-30T18:57:52.097Z,10.20
2023-03-30T19:00:28.717Z,12.02
2023-03-30T19:02:59.342Z,14.10
2023-03-30T19:05:27.775Z,14.25
2023-03-30T19:07:54.865Z,14.02
2023-03-30T19:10:30.365Z,12.30
2023-03-30T19:12:57.334Z,10.98
2023-03-30T19:15:25.119Z,17.63
2023-03-30T19:17:52.046Z,14.93
2023-03-30T19:20:21.423Z,13.57
2023-03-30T19:22:48.792Z,13.57
2023-03-30T19:25:17.284Z,14.35
2023-03-30T19:27:55.432Z,10.82
2023-03-30T19:30:33.288Z,12.60
2023-03-30T19:33:03.680Z,9.90
2023-03-30T19:37:57.502Z,9.20
2023-03-30T19:40:24.645Z,7.82
2023-03-30T19:42:51.847Z,9.38
2023-03-30T19:45:22.990Z,9.15
2023-03-30T19:47:50.478Z,10.93
2023-03-30T19:50:19.828Z,9.85
2023-03-30T19:52:48.877Z,11.90
2023-03-30T19:55:16.329Z,12.90
2023-03-30T19:57:43.206Z,11.80
2023-03-30T20:00:15.905Z,12.43
2023-03-30T20:02:44.621Z,12.70
2023-03-30T20:05:13.060Z,12.90
2023-03-30T20:07:40.618Z,15.52
2023-03-30T20:10:09.956Z,13.52
2023-03-30T20:12:37.117Z,10.23
2023-03-30T20:15:08.841Z,8.63
2023-03-30T20:17:36.501Z,11.55
2023-03-30T20:20:08.895Z,9.07
2023-03-30T20:22:37.157Z,9.55
2023-03-30T20:25:05.885Z,10.13
2023-03-30T20:27:33.785Z,16.70
2023-03-30T20:30:01.254Z,11.85
2023-03-30T20:32:28.411Z,9.93
2023-03-30T20:34:55.281Z,11.50
2023-03-30T20:37:21.897Z,9.68
2023-03-30T20:39:50.008Z,10.75
2023-03-30T20:42:18.206Z,8.95
2023-03-30T20:44:50.138Z,10.15
2023-03-30T20:47:17.840Z,9.30
2023-03-30T20:49:44.979Z,10.02
2023-03-30T20:52:12.596Z,12.63
2023-03-30T20:54:41.072Z,13.02
2023-03-30T20:57:08.041Z,14.23
2023-03-30T20:59:34.864Z,13.10
2023-03-30T21:02:01.728Z,14.55
2023-03-30T21:04:28.920Z,14.38
2023-03-30T21:06:55.988Z,12.77
2023-03-30T21:09:22.718Z,11.50
2023-03-30T21:11:49.395Z,10.23
2023-03-30T21:14:16.357Z,12.43
2023-03-30T21:16:43.170Z,13.07
2023-03-30T21:19:09.897Z,9.45
2023-03-30T21:21:37.811Z,9.50
2023-03-30T21:24:06.119Z,10.80
2023-03-30T21:26:33.072Z,10.25
2023-03-30T21:28:59.736Z,8.77
2023-03-30T21:31:26.387Z,10.50
2023-03-30T21:33:53.459Z,9.52
2023-03-30T21:36:20.194Z,9.95
2023-03-30T21:38:46.982Z,10.10
2023-03-30T21:41:21.418Z,9.63
2023-03-30T21:43:48.324Z,10.10
2023-03-30T21:46:17.477Z,8.35
2023-03-30T21:48:45.917Z,7.07
2023-03-30T21:51:15.998Z,7.53
2023-03-30T21:53:44.534Z,8.00
2023-03-30T21:56:12.268Z,6.38
2023-03-30T21:58:39.703Z,6.60
2023-03-30T22:01:12.492Z,6.82
2023-03-30T22:03:41.353Z,5.03
2023-03-30T22:06:10.144Z,7.40
2023-03-30T22:08:37.085Z,5.93
2023-03-30T22:11:15.390Z,6.13
2023-03-30T22:13:42.593Z,5.28
2023-03-30T22:16:16.456Z,5.10
2023-03-30T22:18:43.655Z,5.18
2023-03-30T22:21:35.174Z,7.70
2023-03-30T22:24:03.414Z,6.43
2023-03-30T22:26:31.852Z,8.00
2023-03-30T22:28:58.586Z,14.50
2023-03-30T22:31:26.673Z,15.18
2023-03-30T22:33:54.548Z,10.85
2023-03-30T22:36:23.869Z,9.68
2023-03-30T22:38:51.681Z,10.90
2023-03-30T22:41:23.693Z,8.20
2023-03-30T22:43:51.949Z,5.00
2023-03-30T22:46:18.725Z,5.65
2023-03-30T22:48:45.529Z,6.70
2023-03-30T22:51:14.924Z,6.05
2023-03-30T22:53:41.716Z,5.05
2023-03-30T22:56:08.527Z,5.43
2023-03-30T22:58:36.382Z,6.40
2023-03-30T23:01:06.098Z,6.53
2023-03-30T23:03:33.100Z,5.68
2023-03-30T23:06:01.700Z,5.55
2023-03-30T23:08:29.775Z,5.50
2023-03-30T23:10:57.392Z,6.05
2023-03-30T23:13:24.155Z,5.30
2023-03-30T23:15:50.869Z,6.35
2023-03-30T23:18:17.567Z,5.07
2023-03-30T23:20:46.867Z,5.13
2023-03-30T23:23:14.767Z,4.95
2023-03-30T23:25:50.188Z,5.32
2023-03-30T23:28:18.014Z,7.75
2023-03-30T23:30:47.766Z,6.53
2023-03-30T23:33:14.543Z,5.70
2023-03-30T23:35:48.281Z,4.68
2023-03-30T23:38:14.995Z,3.75
2023-03-30T23:40:41.632Z,5.70
2023-03-30T23:43:08.540Z,5.70
2023-03-30T23:45:35.245Z,4.70
2023-03-30T23:48:02.172Z,4.30
2023-03-30T23:50:29.121Z,6.03
2023-03-30T23:52:56.336Z,4.47
2023-03-30T23:55:24.570Z,4.70
2023-03-30T23:57:51.247Z,10.93
